METAR Data
IDs: Format: Raw Decoded Include TAF

Data at: 1307 UTC 09 Dec 2019

KBNL 091255Z AUTO 00000KT 10SM OVC110 09/07 A3014 RMK AO2
KBNL 091235Z AUTO 00000KT 10SM OVC110 09/07 A3014 RMK AO2
KBNL 091215Z AUTO 00000KT 10SM OVC110 09/06 A3013 RMK AO2
KBNL 091155Z AUTO 09003KT 10SM OVC100 08/06 A3013 RMK AO2
KBNL 091135Z AUTO 06003KT 10SM FEW008 SCT049 BKN110 08/06 A3013 RMK AO2
KBNL 091115Z AUTO 08003KT 10SM SCT009 OVC110 08/06 A3014 RMK AO2
KBNL 091055Z AUTO 09005KT 10SM BKN009 BKN110 08/06 A3013 RMK AO2
KBNL 091035Z AUTO 07004KT 10SM OVC009 09/05 A3014 RMK AO2
KBNL 091015Z AUTO 05004KT 10SM OVC010 09/05 A3015 RMK AO2
KBNL 090955Z AUTO 00000KT 10SM OVC010 09/05 A3016 RMK AO2
KBNL 090935Z AUTO 04003KT 10SM OVC010 09/05 A3016 RMK AO2
KBNL 090915Z AUTO 00000KT 10SM OVC011 09/05 A3017 RMK AO2
KBNL 090855Z AUTO 00000KT 10SM OVC011 09/05 A3017 RMK AO2
KBNL 090835Z AUTO 02004KT 10SM BKN010 OVC100 09/05 A3017 RMK AO2
KBNL 090815Z AUTO 07004KT 10SM FEW009 OVC100 09/05 A3016 RMK AO2
KBNL 090755Z AUTO 07005KT 10SM FEW009 FEW080 OVC100 09/05 A3017 RMK AO2
KBNL 090735Z AUTO 00000KT 10SM OVC100 09/05 A3018 RMK AO2
KBNL 090715Z AUTO 07004KT 10SM FEW010 OVC100 09/05 A3017 RMK AO2
KBNL 090655Z AUTO 07004KT 10SM BKN011 OVC100 09/05 A3019 RMK AO2
KBNL 090635Z AUTO 07004KT 10SM OVC011 09/05 A3019 RMK AO2
KBNL 090615Z AUTO 00000KT 10SM OVC011 09/05 A3020 RMK AO2
KBNL 090555Z AUTO 00000KT 10SM OVC012 09/05 A3021 RMK AO2
KBNL 090535Z AUTO 00000KT 10SM SCT012 BKN043 OVC095 09/04 A3022 RMK AO2
KBNL 090515Z AUTO 00000KT 10SM SCT043 SCT080 OVC100 09/04 A3022 RMK AO2
KBNL 090455Z AUTO 07005KT 10SM OVC100 09/04 A3023 RMK AO2
KBNL 090435Z AUTO 07005KT 10SM FEW046 OVC100 09/03 A3024 RMK AO2
KBNL 090415Z AUTO 06005KT 10SM SCT047 OVC100 09/03 A3024 RMK AO2
KBNL 090355Z AUTO 07007KT 10SM BKN047 OVC100 09/03 A3024 RMK AO2
KBNL 090335Z AUTO 07006KT 10SM BKN048 OVC100 09/03 A3026 RMK AO2
KBNL 090315Z AUTO 00000KT 10SM OVC049 09/03 A3026 RMK AO2
KBNL 090235Z AUTO 05004KT 10SM FEW049 OVC100 09/04 A3026 RMK AO2
KBNL 090215Z AUTO 00000KT 10SM SCT046 OVC100 08/03 A3026 RMK AO2
KBNL 090155Z AUTO 00000KT 10SM OVC046 07/04 A3026 RMK AO2
KBNL 090135Z AUTO 00000KT 10SM OVC047 06/03 A3026 RMK AO2
KBNL 090115Z AUTO 00000KT 10SM OVC049 07/04 A3027 RMK AO2
KBNL 090055Z AUTO 00000KT 10SM BKN049 08/04 A3027 RMK AO2
KBNL 090035Z AUTO 00000KT 10SM BKN050 BKN060 10/03 A3026 RMK AO2
KBNL 090015Z AUTO 04003KT 10SM BKN050 OVC060 10/03 A3025 RMK AO2
KBNL 082355Z AUTO 05004KT 10SM BKN050 BKN055 OVC070 10/03 A3025 RMK AO2
KBNL 082335Z AUTO 06005KT 10SM BKN055 OVC070 11/03 A3025 RMK AO2
KBNL 082315Z AUTO 05005KT 10SM BKN055 OVC065 10/03 A3026 RMK AO2
KBNL 082255Z AUTO 04003KT 10SM SCT060 11/03 A3026 RMK AO2
KBNL 082235Z AUTO 08004KT 10SM SCT070 12/03 A3025 RMK AO2
KBNL 082215Z AUTO 00000KT 10SM BKN070 14/03 A3027 RMK AO2
KBNL 082155Z AUTO 06004KT 10SM CLR 14/02 A3027 RMK AO2
KBNL 082135Z AUTO 04006KT 10SM CLR 15/02 A3027 RMK AO2
KBNL 082115Z AUTO 06005KT 10SM CLR 15/02 A3027 RMK AO2
KBNL 082055Z AUTO 07006KT 10SM CLR 16/02 A3026 RMK AO2
KBNL 082035Z AUTO 05005KT 10SM CLR 15/01 A3026 RMK AO2
KBNL 082015Z AUTO 07005KT 10SM CLR 16/01 A3026 RMK AO2
KBNL 081955Z AUTO 06008KT 10SM CLR 16/01 A3027 RMK AO2
KBNL 081935Z AUTO 03008KT 10SM CLR 16/01 A3027 RMK AO2
KBNL 081915Z AUTO 05008KT 10SM CLR 16/01 A3028 RMK AO2
KBNL 081855Z AUTO 06007G13KT 10SM CLR 15/01 A3028 RMK AO2
KBNL 081835Z AUTO 06011KT 10SM CLR 15/01 A3030 RMK AO2
KBNL 081815Z AUTO 05008KT 10SM CLR 15/01 A3031 RMK AO2
KBNL 081755Z AUTO 04010KT 10SM CLR 14/01 A3032 RMK AO2
KBNL 081735Z AUTO 07010KT 10SM CLR 13/01 A3034 RMK AO2
KBNL 081715Z AUTO 07007G13KT 10SM CLR 12/01 A3035 RMK AO2
KBNL 081655Z AUTO 07007KT 10SM CLR 12/00 A3037 RMK AO2
KBNL 081635Z AUTO 07006KT 10SM CLR 11/00 A3038 RMK AO2
KBNL 081615Z AUTO 01006KT 10SM CLR 10/00 A3040 RMK AO2
KBNL 081555Z AUTO 03006KT 10SM CLR 10/M00 A3040 RMK AO2
KBNL 081535Z AUTO 04008KT 10SM CLR 09/M00 A3041 RMK AO2
KBNL 081515Z AUTO 03008KT 10SM CLR 08/M00 A3041 RMK AO2
KBNL 081455Z AUTO 02008KT 10SM CLR 08/00 A3042 RMK AO2
KBNL 081435Z AUTO 05009KT 10SM CLR 07/00 A3042 RMK AO2
KBNL 081415Z AUTO 04007KT 10SM CLR 06/00 A3041 RMK AO2
KBNL 081355Z AUTO 03007KT 10SM CLR 06/00 A3040 RMK AO2
KBNL 081335Z AUTO 03007KT 10SM CLR 05/00 A3040 RMK AO2
KBNL 081315Z AUTO 03006KT 10SM CLR 05/00 A3040 RMK AO2
KBNL 081255Z AUTO 02005KT 10SM CLR 04/01 A3039 RMK AO2
KBNL 081235Z AUTO 03003KT 10SM CLR 04/01 A3038 RMK AO2
KBNL 081215Z AUTO 03005KT 10SM FEW070 04/01 A3038 RMK AO2
KBNL 081155Z AUTO 04006KT 10SM BKN070 04/01 A3038 RMK AO2
KBNL 081135Z AUTO 03006KT 10SM BKN070 04/01 A3037 RMK AO2
KBNL 081115Z AUTO 04006KT 10SM OVC070 05/02 A3037 RMK AO2
KBNL 081055Z AUTO 04005KT 10SM BKN070 05/02 A3037 RMK AO2
KBNL 081035Z AUTO 04006KT 10SM SCT070 05/02 A3037 RMK AO2
KBNL 081015Z AUTO 04005KT 10SM SCT070 05/02 A3036 RMK AO2
KBNL 080955Z AUTO 05004KT 10SM FEW070 06/02 A3036 RMK AO2
KBNL 080935Z AUTO 05004KT 10SM BKN070 06/02 A3036 RMK AO2
KBNL 080915Z AUTO 04005KT 10SM OVC070 06/03 A3036 RMK AO2
KBNL 080855Z AUTO 05006KT 10SM OVC070 06/03 A3036 RMK AO2
KBNL 080835Z AUTO 05006KT 10SM BKN070 06/03 A3036 RMK AO2
KBNL 080815Z AUTO 06006KT 10SM SCT070 07/03 A3035 RMK AO2
KBNL 080755Z AUTO 05009KT 10SM BKN070 07/03 A3035 RMK AO2
KBNL 080735Z AUTO 05007KT 10SM SCT070 07/04 A3035 RMK AO2
KBNL 080715Z AUTO 05007KT 10SM CLR 07/04 A3034 RMK AO2
KBNL 080655Z AUTO 05006KT 10SM CLR 07/05 A3035 RMK AO2
KBNL 080635Z AUTO 05004KT 10SM BKN070 07/05 A3034 RMK AO2
KBNL 080615Z AUTO 05005KT 10SM OVC070 08/05 A3034 RMK AO2
KBNL 080555Z AUTO 05006KT 10SM OVC070 08/05 A3034 RMK AO2
KBNL 080535Z AUTO 05005KT 10SM SCT070 08/05 A3035 RMK AO2
KBNL 080515Z AUTO 05005KT 10SM CLR 08/05 A3034 RMK AO2
KBNL 080455Z AUTO 05005KT 10SM CLR 08/05 A3034 RMK AO2
KBNL 080435Z AUTO 06005KT 10SM CLR 09/05 A3034 RMK AO2
KBNL 080415Z AUTO 05005KT 10SM CLR 09/06 A3034 RMK AO2
KBNL 080355Z AUTO 06005KT 10SM CLR 09/05 A3034 RMK AO2
KBNL 080335Z AUTO 05006KT 10SM CLR 10/06 A3034 RMK AO2
KBNL 080315Z AUTO 05006KT 10SM CLR 10/06 A3033 RMK AO2
KBNL 080255Z AUTO 05005KT 10SM FEW034 FEW075 10/06 A3033 RMK AO2
KBNL 080235Z AUTO 05006KT 10SM SCT075 11/06 A3032 RMK AO2
KBNL 080215Z AUTO 05005KT 10SM BKN075 11/06 A3031 RMK AO2
KBNL 080155Z AUTO 05006KT 10SM OVC075 11/06 A3031 RMK AO2
KBNL 080135Z AUTO 05004KT 10SM OVC075 12/06 A3031 RMK AO2
KBNL 080115Z AUTO 05004KT 10SM BKN075 12/06 A3031 RMK AO2